createdAt,value
2023-04-19T00:01:32.740Z,102565.38
2023-04-19T00:04:00.701Z,102563.72
2023-04-19T00:06:30.527Z,102552.09
2023-04-19T00:08:58.402Z,102550.44
2023-04-19T00:11:26.225Z,102554.16
2023-04-19T00:13:53.921Z,102546.06
2023-04-19T00:16:23.028Z,102553.31
2023-04-19T00:18:50.744Z,102545.22
2023-04-19T00:21:18.535Z,102532.06
2023-04-19T00:23:46.281Z,102556.19
2023-04-19T00:26:15.821Z,102552.47
2023-04-19T00:28:43.541Z,102550.63
2023-04-19T00:31:11.321Z,102547.09
2023-04-19T00:33:40.473Z,102557.69
2023-04-19T00:36:08.735Z,102542.53
2023-04-19T00:38:36.434Z,102553.50
2023-04-19T00:41:04.113Z,102541.25
2023-04-19T00:43:31.833Z,102548.94
2023-04-19T00:46:00.030Z,102544.41
2023-04-19T00:48:27.835Z,102542.53
2023-04-19T00:50:56.936Z,102539.84
2023-04-19T00:53:24.628Z,102543.56
2023-04-19T00:55:52.569Z,102544.41
2023-04-19T00:58:20.324Z,102549.78
2023-04-19T01:00:48.025Z,102543.56
2023-04-19T01:03:17.021Z,102545.22
2023-04-19T01:05:44.873Z,102541.69
2023-04-19T01:08:13.956Z,102546.25
2023-04-19T01:10:41.734Z,102543.56
2023-04-19T01:13:09.500Z,102542.72
2023-04-19T01:15:37.669Z,102549.13
2023-04-19T01:18:05.751Z,102539.38
2023-04-19T01:20:33.508Z,102546.63
2023-04-19T01:23:02.795Z,102540.22
2023-04-19T01:25:30.512Z,102548.31
2023-04-19T01:27:58.246Z,102540.22
2023-04-19T01:30:25.968Z,102549.13
2023-04-19T01:32:53.736Z,102544.78
2023-04-19T01:35:21.502Z,102541.25
2023-04-19T01:37:49.208Z,102546.63
2023-04-19T01:40:19.023Z,102540.41
2023-04-19T01:42:46.744Z,102541.25
2023-04-19T01:45:14.494Z,102541.25
2023-04-19T01:47:42.344Z,102544.13
2023-04-19T01:50:10.866Z,102540.41
2023-04-19T01:52:38.596Z,102539.75
2023-04-19T01:55:06.588Z,102533.53
2023-04-19T01:57:35.648Z,102531.69
2023-04-19T02:00:03.644Z,102525.84
2023-04-19T02:02:31.457Z,102526.28
2023-04-19T02:04:59.202Z,102530.00
2023-04-19T02:07:26.965Z,102527.69
2023-04-19T02:09:54.613Z,102521.28
2023-04-19T02:12:22.393Z,102526.66
2023-04-19T02:14:51.423Z,102521.28
2023-04-19T02:17:19.100Z,102521.09
2023-04-19T02:19:46.789Z,102517.56
2023-04-19T02:22:14.458Z,102523.78
2023-04-19T02:24:42.243Z,102524.63
2023-04-19T02:27:09.989Z,102515.50
2023-04-19T02:29:39.195Z,102510.31
2023-04-19T02:32:08.397Z,102508.47
2023-04-19T02:34:36.378Z,102514.69
2023-04-19T02:37:04.261Z,102510.13
2023-04-19T02:39:32.685Z,102508.66
2023-04-19T02:42:01.161Z,102505.75
2023-04-19T02:44:28.871Z,102511.16
2023-04-19T02:46:57.639Z,102508.47
2023-04-19T02:49:26.845Z,102511.16
2023-04-19T02:51:54.549Z,102513.00
2023-04-19T02:54:22.254Z,102513.00
2023-04-19T02:56:49.960Z,102521.09
2023-04-19T02:59:17.662Z,102505.94
2023-04-19T03:01:45.420Z,102509.47
2023-04-19T03:04:13.274Z,102515.06
2023-04-19T03:06:44.383Z,102510.31
2023-04-19T03:09:12.117Z,102508.84
2023-04-19T03:11:40.483Z,102509.66
2023-04-19T03:14:08.202Z,102514.88
2023-04-19T03:16:36.590Z,102502.63
2023-04-19T03:19:04.332Z,102505.31
2023-04-19T03:21:31.996Z,102502.81
2023-04-19T03:24:01.058Z,102495.75
2023-04-19T03:26:28.860Z,102503.81
2023-04-19T03:28:56.547Z,102494.06
2023-04-19T03:31:24.294Z,102495.75
2023-04-19T03:33:52.098Z,102496.78
2023-04-19T03:36:19.785Z,102499.47
2023-04-19T03:38:47.469Z,102479.06
2023-04-19T03:41:24.744Z,102489.06
2023-04-19T03:43:52.670Z,102487.84
2023-04-19T03:46:20.440Z,102495.09
2023-04-19T03:48:48.691Z,102488.03
2023-04-19T03:51:16.908Z,102488.88
2023-04-19T03:53:44.740Z,102488.03
2023-04-19T03:56:12.456Z,102487.22
2023-04-19T03:58:42.780Z,102478.28
2023-04-19T04:01:19.167Z,102489.91
2023-04-19T04:03:47.071Z,102494.44
2023-04-19T04:06:14.927Z,102492.59
2023-04-19T04:08:42.642Z,102497.97
2023-04-19T04:11:10.633Z,102498.19
2023-04-19T04:13:38.416Z,102493.63
2023-04-19T04:16:07.686Z,102495.47
2023-04-19T04:18:35.672Z,102497.34
2023-04-19T04:21:03.513Z,102499.19
2023-04-19T04:23:31.211Z,102497.53
2023-04-19T04:26:00.766Z,102498.56
2023-04-19T04:28:28.738Z,102500.22
2023-04-19T04:30:57.457Z,102498.38
2023-04-19T04:33:27.407Z,102498.38
2023-04-19T04:35:56.346Z,102502.91
2023-04-19T04:38:25.190Z,102502.09
2023-04-19T04:40:54.434Z,102499.56
2023-04-19T04:43:22.850Z,102500.59
2023-04-19T04:45:51.003Z,102498.44
2023-04-19T04:48:18.995Z,102498.94
2023-04-19T04:50:48.031Z,102507.84
2023-04-19T04:53:15.780Z,102507.84
2023-04-19T04:55:43.475Z,102502.72
2023-04-19T04:58:11.220Z,102505.69
2023-04-19T05:00:38.954Z,102516.28
2023-04-19T05:03:06.796Z,102512.94
2023-04-19T05:05:34.782Z,102527.41
2023-04-19T05:08:03.839Z,102516.66
2023-04-19T05:10:31.537Z,102516.66
2023-04-19T05:12:59.283Z,102522.03
2023-04-19T05:15:26.937Z,102525.75
2023-04-19T05:17:54.713Z,102520.38
2023-04-19T05:20:22.689Z,102526.59
2023-04-19T05:22:50.363Z,102528.63
2023-04-19T05:25:19.408Z,102526.78
2023-04-19T05:27:47.130Z,102525.09
2023-04-19T05:30:15.232Z,102520.75
2023-04-19T05:32:43.219Z,102528.00
2023-04-19T05:35:11.635Z,102525.94
2023-04-19T05:37:39.597Z,102527.63
2023-04-19T05:40:10.163Z,102520.56
2023-04-19T05:42:39.647Z,102528.44
2023-04-19T05:45:08.325Z,102526.41
2023-04-19T05:47:36.089Z,102536.16
2023-04-19T05:50:03.900Z,102528.81
2023-04-19T05:52:31.788Z,102521.75
2023-04-19T05:54:59.517Z,102525.22
2023-04-19T05:57:27.273Z,102528.00
2023-04-19T05:59:56.448Z,102522.22
2023-04-19T06:02:24.300Z,102529.66
2023-04-19T06:04:52.414Z,102528.63
2023-04-19T06:07:30.923Z,102532.16
2023-04-19T06:10:00.528Z,102531.78
2023-04-19T06:12:28.778Z,102529.75
2023-04-19T06:14:57.946Z,102536.25
2023-04-19T06:17:25.832Z,102530.69
2023-04-19T06:19:54.245Z,102542.13
2023-04-19T06:22:22.419Z,102537.56
2023-04-19T06:24:50.645Z,102541.72
2023-04-19T06:27:18.538Z,102545.25
2023-04-19T06:29:46.313Z,102551.69
2023-04-19T06:32:15.589Z,102540.06
2023-04-19T06:34:43.382Z,102531.97
2023-04-19T06:37:11.394Z,102538.22
2023-04-19T06:39:39.100Z,102530.13
2023-04-19T06:42:07.070Z,102537.19
2023-04-19T06:44:34.775Z,102538.03
2023-04-19T06:47:02.687Z,102517.41
2023-04-19T06:49:32.363Z,102528.25
2023-04-19T06:52:01.077Z,102528.91
2023-04-19T06:54:28.767Z,102534.94
2023-04-19T06:56:57.682Z,102530.00
2023-04-19T06:59:28.203Z,102533.34
2023-04-19T07:01:57.504Z,102523.41
2023-04-19T07:04:26.267Z,102525.91
2023-04-19T07:06:55.583Z,102529.06
2023-04-19T07:09:23.357Z,102529.50
2023-04-19T07:11:51.371Z,102530.16
2023-04-19T07:14:19.467Z,102529.13
2023-04-19T07:16:47.505Z,102525.22
2023-04-19T07:19:15.284Z,102528.53
2023-04-19T07:21:42.980Z,102524.81
2023-04-19T07:24:12.004Z,102527.31
2023-04-19T07:26:39.698Z,102524.44
2023-04-19T07:29:07.395Z,102530.28
2023-04-19T07:31:35.321Z,102529.88
2023-04-19T07:34:03.158Z,102541.50
2023-04-19T07:36:31.773Z,102528.03
2023-04-19T07:38:59.477Z,102523.66
2023-04-19T07:41:28.954Z,102523.66
2023-04-19T07:43:56.696Z,102532.78
2023-04-19T07:46:24.512Z,102515.31
2023-04-19T07:48:52.250Z,102529.44
2023-04-19T07:51:20.570Z,102527.75
2023-04-19T07:53:48.631Z,102518.00
2023-04-19T07:56:16.869Z,102527.13
2023-04-19T07:58:50.866Z,102527.97
2023-04-19T08:01:24.714Z,102521.72
2023-04-19T08:03:53.041Z,102514.66
2023-04-19T08:06:21.660Z,102519.09
2023-04-19T08:08:50.240Z,102517.38
2023-04-19T08:11:17.998Z,102522.13
2023-04-19T08:14:02.957Z,102502.75
2023-04-19T08:17:14.561Z,102513.00
2023-04-19T08:19:22.088Z,102514.84
2023-04-19T08:21:49.765Z,102506.25
2023-04-19T08:24:17.768Z,102502.78
2023-04-19T08:26:53.447Z,102506.97
2023-04-19T08:29:23.142Z,102494.75
2023-04-19T08:31:51.008Z,102505.75
2023-04-19T08:34:18.815Z,102506.19
2023-04-19T08:37:00.117Z,102506.56
2023-04-19T08:39:33.146Z,102495.69
2023-04-19T08:42:10.405Z,102502.31
2023-04-19T08:44:59.074Z,102494.94
2023-04-19T08:47:34.216Z,102493.84
2023-04-19T08:50:17.256Z,102491.91
2023-04-19T08:52:58.739Z,102493.94
2023-04-19T08:55:30.318Z,102496.81
2023-04-19T08:57:58.566Z,102491.16
2023-04-19T09:00:27.764Z,102494.25
2023-04-19T09:02:55.955Z,102497.56
2023-04-19T09:05:24.022Z,102492.56
2023-04-19T09:07:52.394Z,102484.22
2023-04-19T09:10:21.824Z,102471.06
2023-04-19T09:13:02.087Z,102483.97
2023-04-19T09:15:44.510Z,102475.84
2023-04-19T09:18:14.248Z,102491.22
2023-04-19T09:20:43.867Z,102479.16
2023-04-19T09:23:13.483Z,102487.69
2023-04-19T09:25:59.226Z,102475.25
2023-04-19T09:28:29.859Z,102472.16
2023-04-19T09:31:10.635Z,102483.78
2023-04-19T09:33:40.057Z,102487.50
2023-04-19T09:36:09.116Z,102479.41
2023-04-19T09:38:48.865Z,102482.94
2023-04-19T09:41:17.338Z,102490.44
2023-04-19T09:44:02.276Z,102489.22
2023-04-19T09:46:35.532Z,102469.69
2023-04-19T09:49:25.297Z,102487.16
2023-04-19T09:52:06.533Z,102486.13
2023-04-19T09:54:34.577Z,102476.41
2023-04-19T09:57:02.695Z,102472.88
2023-04-19T09:59:30.542Z,102463.94
2023-04-19T10:02:02.030Z,102481.59
2023-04-19T10:04:47.817Z,102472.00
2023-04-19T10:07:30.047Z,102474.13
2023-04-19T10:15:07.041Z,102477.16
2023-04-19T10:17:36.280Z,102477.78
2023-04-19T10:20:07.916Z,102474.03
2023-04-19T10:22:37.712Z,102478.81
2023-04-19T10:25:16.110Z,102471.13
2023-04-19T10:27:46.664Z,102473.81
2023-04-19T10:30:19.166Z,102473.59
2023-04-19T10:32:54.010Z,102466.78
2023-04-19T10:35:23.264Z,102469.06
2023-04-19T10:38:07.717Z,102468.03
2023-04-19T10:41:00.730Z,102464.31
2023-04-19T10:43:30.074Z,102467.84
2023-04-19T10:46:01.686Z,102464.94
2023-04-19T10:48:43.976Z,102460.38
2023-04-19T10:51:16.821Z,102451.25
2023-04-19T10:53:52.462Z,102450.66
2023-04-19T10:56:22.069Z,102449.19
2023-04-19T10:59:21.834Z,102450.47
2023-04-19T11:01:54.842Z,102445.09
2023-04-19T11:04:46.593Z,102434.94
2023-04-19T11:07:14.546Z,102442.63
2023-04-19T11:09:47.130Z,102419.16
2023-04-19T11:12:15.999Z,102439.53
2023-04-19T11:14:45.794Z,102431.22
2023-04-19T11:17:18.123Z,102437.06
2023-04-19T11:19:54.705Z,102432.91
2023-04-19T11:22:26.802Z,102433.53
2023-04-19T11:24:54.473Z,102422.94
2023-04-19T11:27:22.669Z,102432.28
2023-04-19T11:29:50.404Z,102419.22
2023-04-19T11:32:19.695Z,102426.66
2023-04-19T11:34:48.831Z,102422.94
2023-04-19T11:37:16.526Z,102407.56
2023-04-19T11:39:48.283Z,102425.63
2023-04-19T11:42:22.005Z,102416.69
2023-04-19T11:44:51.761Z,102418.56
2023-04-19T11:47:19.920Z,102425.00
2023-04-19T11:49:49.024Z,102406.91
2023-04-19T11:52:23.470Z,102405.25
2023-04-19T11:54:52.232Z,102383.84
2023-04-19T11:57:29.515Z,102393.59
2023-04-19T12:00:07.699Z,102395.28
2023-04-19T12:02:39.978Z,102390.69
2023-04-19T12:05:14.853Z,102387.16
2023-04-19T12:08:07.960Z,102396.94
2023-04-19T12:10:36.578Z,102384.88
2023-04-19T12:13:17.971Z,102385.50
2023-04-19T12:15:46.690Z,102379.47
2023-04-19T12:18:15.812Z,102380.50
2023-04-19T12:20:47.602Z,102369.72
2023-04-19T12:23:16.042Z,102373.88
2023-04-19T12:25:46.113Z,102367.22
2023-04-19T12:28:14.947Z,102371.59
2023-04-19T12:30:43.254Z,102360.34
2023-04-19T12:33:11.287Z,102352.88
2023-04-19T12:35:39.855Z,102364.94
2023-04-19T12:38:09.553Z,102362.84
2023-04-19T12:40:37.248Z,102357.84
2023-04-19T12:43:07.026Z,102357.22
2023-04-19T12:45:35.106Z,102357.44
2023-04-19T12:48:02.957Z,102358.25
2023-04-19T12:50:30.742Z,102351.59
2023-04-19T12:52:58.434Z,102349.94
2023-04-19T12:55:27.731Z,102351.84
2023-04-19T12:57:55.493Z,102345.97
2023-04-19T13:00:23.214Z,102350.56
2023-04-19T13:02:51.103Z,102354.72
2023-04-19T13:05:18.948Z,102336.38
2023-04-19T13:07:46.923Z,102336.56
2023-04-19T13:10:14.689Z,102322.00
2023-04-19T13:12:43.875Z,102313.41
2023-04-19T13:15:12.242Z,102316.75
2023-04-19T13:17:39.999Z,102300.31
2023-04-19T13:20:09.483Z,102310.72
2023-04-19T13:22:37.211Z,102307.00
2023-04-19T13:25:05.300Z,102298.28
2023-04-19T13:27:32.999Z,102293.06
2023-04-19T13:30:02.089Z,102301.19
2023-04-19T13:32:30.389Z,102283.88
2023-04-19T13:34:58.197Z,102291.56
2023-04-19T13:37:26.010Z,102284.91
2023-04-19T13:39:55.225Z,102291.38
2023-04-19T13:42:29.090Z,102278.88
2023-04-19T13:44:56.834Z,102290.75
2023-04-19T13:47:26.048Z,102285.53
2023-04-19T13:49:54.074Z,102272.19
2023-04-19T13:52:23.270Z,102272.41
2023-04-19T13:54:51.025Z,102264.09
2023-04-19T13:57:18.810Z,102264.47
2023-04-19T13:59:46.509Z,102258.38
2023-04-19T14:02:14.302Z,102260.44
2023-04-19T14:04:43.513Z,102242.13
2023-04-19T14:07:11.478Z,102260.66
2023-04-19T14:09:39.220Z,102251.50
2023-04-19T14:12:09.058Z,102263.75
2023-04-19T14:14:36.774Z,102253.97
2023-04-19T14:17:04.627Z,102248.78
2023-04-19T14:19:32.320Z,102252.72
2023-04-19T14:22:01.458Z,102235.84
2023-04-19T14:24:29.194Z,102230.84
2023-04-19T14:29:31.160Z,102235.78
2023-04-19T14:32:05.151Z,102237.44
2023-04-19T14:34:38.340Z,102235.34
2023-04-19T14:37:07.482Z,102221.38
2023-04-19T14:39:35.245Z,102228.66
2023-04-19T14:42:03.316Z,102216.34
2023-04-19T14:44:31.032Z,102216.94
2023-04-19T14:46:58.735Z,102206.09
2023-04-19T14:49:26.768Z,102203.00
2023-04-19T14:51:54.490Z,102193.22
2023-04-19T14:54:23.640Z,102204.06
2023-04-19T14:56:52.742Z,102199.03
2023-04-19T14:59:20.568Z,102200.09
2023-04-19T15:01:48.469Z,102180.50
2023-04-19T15:04:16.482Z,102177.25
2023-04-19T15:06:44.484Z,102192.84
2023-04-19T15:09:12.235Z,102185.16
2023-04-19T15:11:41.366Z,102195.16
2023-04-19T15:14:09.757Z,102185.38
2023-04-19T15:16:38.717Z,102185.59
2023-04-19T15:19:07.495Z,102177.91
2023-04-19T15:21:35.435Z,102187.28
2023-04-19T15:24:03.826Z,102181.06
2023-04-19T15:26:31.582Z,102181.06
2023-04-19T15:29:00.610Z,102180.84
2023-04-19T15:31:28.351Z,102185.38
2023-04-19T15:33:56.108Z,102180.56
2023-04-19T15:36:23.803Z,102183.28
2023-04-19T15:38:51.532Z,102178.91
2023-04-19T15:41:19.242Z,102175.59
2023-04-19T15:43:47.016Z,102163.94
2023-04-19T15:46:16.681Z,102169.56
2023-04-19T15:48:46.697Z,102161.44
2023-04-19T15:51:15.310Z,102160.16
2023-04-19T15:53:43.118Z,102157.69
2023-04-19T15:56:11.475Z,102158.50
2023-04-19T15:58:39.218Z,102168.50
2023-04-19T16:01:09.620Z,102156.84
2023-04-19T16:03:38.932Z,102147.06
2023-04-19T16:06:06.805Z,102152.25
2023-04-19T16:08:34.544Z,102160.38
2023-04-19T16:11:02.279Z,102152.72
2023-04-19T16:13:31.454Z,102151.03
2023-04-19T16:15:59.373Z,102157.06
2023-04-19T16:18:27.130Z,102158.34
2023-04-19T16:20:56.226Z,102154.19
2023-04-19T16:23:24.860Z,102153.59
2023-04-19T16:25:53.794Z,102154.63
2023-04-19T16:28:24.676Z,102154.03
2023-04-19T16:30:52.431Z,102156.13
2023-04-19T16:33:20.695Z,102151.75
2023-04-19T16:35:48.451Z,102146.34
2023-04-19T16:38:17.600Z,102144.91
2023-04-19T16:40:47.919Z,102150.53
2023-04-19T16:43:15.676Z,102144.50
2023-04-19T16:45:43.532Z,102140.34
2023-04-19T16:48:11.486Z,102146.00
2023-04-19T16:50:39.304Z,102148.69
2023-04-19T16:53:07.005Z,102130.84
2023-04-19T16:55:36.163Z,102145.78
2023-04-19T16:58:03.918Z,102136.00
2023-04-19T17:00:31.677Z,102143.28
2023-04-19T17:02:59.510Z,102132.91
2023-04-19T17:05:27.333Z,102120.69
2023-04-19T17:07:56.733Z,102131.25
2023-04-19T17:10:25.657Z,102125.00
2023-04-19T17:12:55.547Z,102121.28
2023-04-19T17:15:23.384Z,102131.47
2023-04-19T17:17:51.116Z,102130.84
2023-04-19T17:20:19.059Z,102126.25
2023-04-19T17:22:46.871Z,102121.91
2023-04-19T17:25:14.744Z,102127.91
2023-04-19T17:27:42.457Z,102123.56
2023-04-19T17:30:12.345Z,102119.81
2023-04-19T17:32:40.135Z,102126.47
2023-04-19T17:35:08.326Z,102115.03
2023-04-19T17:37:36.141Z,102119.63
2023-04-19T17:40:04.013Z,102122.34
2023-04-19T17:42:31.733Z,102122.94
2023-04-19T17:45:00.269Z,102119.41
2023-04-19T17:47:29.729Z,102124.81
2023-04-19T17:50:07.109Z,102123.16
2023-04-19T17:52:34.960Z,102125.03
2023-04-19T17:55:04.718Z,102127.13
2023-04-19T17:57:33.810Z,102123.38
2023-04-19T18:00:06.116Z,102123.59
2023-04-19T18:02:36.694Z,102116.53
2023-04-19T18:05:04.888Z,102118.41
2023-04-19T18:07:32.721Z,102118.63
2023-04-19T18:10:00.562Z,102118.00
2023-04-19T18:12:28.407Z,102118.63
2023-04-19T18:14:56.168Z,102125.09
2023-04-19T18:17:23.892Z,102135.91
2023-04-19T18:19:53.024Z,102116.13
2023-04-19T18:22:21.027Z,102137.78
2023-04-19T18:24:51.143Z,102136.34
2023-04-19T18:27:18.966Z,102137.38
2023-04-19T18:29:46.766Z,102133.84
2023-04-19T18:32:14.755Z,102141.34
2023-04-19T18:34:42.574Z,102144.06
2023-04-19T18:37:17.400Z,102147.81
2023-04-19T18:39:45.291Z,102147.19
2023-04-19T18:42:13.270Z,102153.66
2023-04-19T18:44:52.044Z,102150.34
2023-04-19T18:47:21.209Z,102149.72
2023-04-19T18:50:02.900Z,102158.88
2023-04-19T18:52:33.388Z,102160.16
2023-04-19T18:55:01.136Z,102158.72
2023-04-19T18:57:30.493Z,102163.28
2023-04-19T19:00:01.565Z,102170.56
2023-04-19T19:02:29.617Z,102176.19
2023-04-19T19:05:01.009Z,102175.78
2023-04-19T19:10:04.004Z,102169.97
2023-04-19T19:12:42.861Z,102181.00
2023-04-19T19:15:11.294Z,102178.50
2023-04-19T19:17:39.123Z,102175.78
2023-04-19T19:20:08.344Z,102174.34
2023-04-19T19:22:36.163Z,102167.53
2023-04-19T19:25:05.772Z,102180.19
2023-04-19T19:27:33.536Z,102183.09
2023-04-19T19:30:03.379Z,102191.22
2023-04-19T19:32:31.267Z,102189.78
2023-04-19T19:35:02.422Z,102169.41
2023-04-19T19:37:32.479Z,102190.19
2023-04-19T19:40:04.285Z,102183.13
2023-04-19T19:42:35.397Z,102185.22
2023-04-19T19:45:03.754Z,102181.50
2023-04-19T19:47:35.170Z,102190.22
2023-04-19T19:50:48.684Z,102187.50
2023-04-19T19:52:52.549Z,102191.47
2023-04-19T19:55:20.340Z,102180.88
2023-04-19T19:58:23.782Z,102191.91
2023-04-19T20:00:46.107Z,102201.06
2023-04-19T20:03:24.646Z,102195.03
2023-04-19T20:06:03.753Z,102204.38
2023-04-19T20:08:44.160Z,102208.13
2023-04-19T20:11:12.492Z,102204.81
2023-04-19T20:13:41.592Z,102212.09
2023-04-19T20:16:10.010Z,102207.94
2023-04-19T20:18:38.729Z,102204.63
2023-04-19T20:21:06.451Z,102211.06
2023-04-19T20:23:34.207Z,102202.34
2023-04-19T20:26:01.940Z,102211.69
2023-04-19T20:28:29.655Z,102213.56
2023-04-19T20:30:58.723Z,102217.53
2023-04-19T20:33:28.258Z,102219.59
2023-04-19T20:35:56.794Z,102217.13
2023-04-19T20:38:26.492Z,102231.69
2023-04-19T20:40:54.699Z,102211.31
2023-04-19T20:43:22.380Z,102203.44
2023-04-19T20:45:50.202Z,102217.16
2023-04-19T20:48:19.332Z,102218.19
2023-04-19T20:50:47.054Z,102218.41
2023-04-19T20:53:14.837Z,102220.47
2023-04-19T20:55:43.532Z,102223.59
2023-04-19T20:58:11.737Z,102222.78
2023-04-19T21:00:39.504Z,102218.63
2023-04-19T21:03:07.853Z,102224.44
2023-04-19T21:05:37.420Z,102227.34
2023-04-19T21:08:05.465Z,102223.19
2023-04-19T21:10:33.285Z,102231.72
2023-04-19T21:13:01.099Z,102227.75
2023-04-19T21:15:28.831Z,102219.44
2023-04-19T21:17:56.589Z,102227.97
2023-04-19T21:20:24.403Z,102227.13
2023-04-19T21:22:53.436Z,102226.50
2023-04-19T21:25:21.380Z,102231.09
2023-04-19T21:27:49.101Z,102237.53
2023-04-19T21:30:16.868Z,102229.00
2023-04-19T21:32:44.573Z,102233.78
2023-04-19T21:35:12.368Z,102211.56
2023-04-19T21:37:40.227Z,102219.66
2023-04-19T21:40:10.203Z,102231.28
2023-04-19T21:42:37.997Z,102223.38
2023-04-19T21:45:06.617Z,102225.25
2023-04-19T21:47:34.388Z,102226.91
2023-04-19T21:50:02.101Z,102219.84
2023-04-19T21:52:29.951Z,102228.97
2023-04-19T21:54:57.687Z,102226.28
2023-04-19T21:57:27.169Z,102226.69
2023-04-19T21:59:55.000Z,102225.88
2023-04-19T22:02:22.818Z,102220.47
2023-04-19T22:04:50.901Z,102223.16
2023-04-19T22:07:19.338Z,102230.63
2023-04-19T22:09:47.665Z,102227.31
2023-04-19T22:12:15.407Z,102228.34
2023-04-19T22:14:45.614Z,102221.88
2023-04-19T22:17:13.324Z,102220.00
2023-04-19T22:19:41.021Z,102223.53
2023-04-19T22:22:08.737Z,102223.72
2023-04-19T22:24:41.373Z,102222.28
2023-04-19T22:27:21.346Z,102225.19
2023-04-19T22:29:50.465Z,102220.81
2023-04-19T22:32:18.488Z,102220.19
2023-04-19T22:34:47.394Z,102216.88
2023-04-19T22:37:15.086Z,102214.56
2023-04-19T22:39:42.793Z,102210.22
2023-04-19T22:42:10.534Z,102208.56
2023-04-19T22:44:40.565Z,102216.03
2023-04-19T22:47:09.624Z,102207.31
2023-04-19T22:49:37.321Z,102202.50
2023-04-19T22:52:05.572Z,102212.06
2023-04-19T22:54:33.258Z,102204.19
2023-04-19T22:57:00.989Z,102208.94
2023-04-19T22:59:28.683Z,102205.63
2023-04-19T23:01:56.601Z,102202.91
2023-04-19T23:04:25.767Z,102195.22
2023-04-19T23:06:53.650Z,102198.97
2023-04-19T23:09:21.817Z,102197.31
2023-04-19T23:11:49.570Z,102196.47
2023-04-19T23:14:18.412Z,102196.47
2023-04-19T23:16:46.541Z,102193.16
2023-04-19T23:19:15.747Z,102190.66
2023-04-19T23:21:45.024Z,102181.94
2023-04-19T23:24:12.746Z,102179.44
2023-04-19T23:26:40.480Z,102189.59
2023-04-19T23:29:08.175Z,102184.41
2023-04-19T23:31:35.960Z,102182.75
2023-04-19T23:34:03.742Z,102178.59
2023-04-19T23:36:31.465Z,102182.94
2023-04-19T23:39:00.523Z,102188.53
2023-04-19T23:41:28.232Z,102181.69
2023-04-19T23:43:56.014Z,102181.88
2023-04-19T23:46:23.897Z,102181.06
2023-04-19T23:48:51.692Z,102185.00
2023-04-19T23:51:19.448Z,102174.41
2023-04-19T23:53:47.153Z,102170.25
2023-04-19T23:56:16.202Z,102167.75
2023-04-19T23:58:43.932Z,102169.81
